createdAt,value
2019-05-22T00:02:10.212Z,10.08
2019-05-22T00:04:42.552Z,10.00
2019-05-22T00:07:13.548Z,10.10
2019-05-22T00:09:54.196Z,9.98
2019-05-22T00:12:26.951Z,9.78
2019-05-22T00:14:58.416Z,10.32
2019-05-22T00:17:31.448Z,10.32
2019-05-22T00:20:04.708Z,10.37
2019-05-22T00:22:48.490Z,9.80
2019-05-22T00:25:33.103Z,9.68
2019-05-22T00:28:04.208Z,9.88
2019-05-22T00:30:51.384Z,9.05
2019-05-22T00:33:20.433Z,9.20
2019-05-22T00:35:55.055Z,9.63
2019-05-22T00:38:26.249Z,9.23
2019-05-22T00:40:56.006Z,9.18
2019-05-22T00:43:31.650Z,8.95
2019-05-22T00:46:03.614Z,9.15
2019-05-22T00:48:35.029Z,8.75
2019-05-22T00:51:09.746Z,8.65
2019-05-22T00:53:42.228Z,8.85
2019-05-22T00:56:34.228Z,8.88
2019-05-22T00:59:23.002Z,8.77
2019-05-22T01:01:59.068Z,8.35
2019-05-22T01:04:41.180Z,8.88
2019-05-22T01:07:13.435Z,8.65
2019-05-22T01:09:51.703Z,8.55
2019-05-22T01:12:33.861Z,8.70
2019-05-22T01:15:12.614Z,8.60
2019-05-22T01:17:41.787Z,8.08
2019-05-22T01:20:14.582Z,8.50
2019-05-22T01:22:47.314Z,8.70
2019-05-22T01:25:20.487Z,8.10
2019-05-22T01:27:50.841Z,8.28
2019-05-22T01:30:39.310Z,8.13
2019-05-22T01:33:09.859Z,8.43
2019-05-22T01:35:48.601Z,7.78
2019-05-22T01:38:19.087Z,8.03
2019-05-22T01:40:51.077Z,7.35
2019-05-22T01:43:24.501Z,7.40
2019-05-22T01:45:55.895Z,7.60
2019-05-22T01:48:29.797Z,7.58
2019-05-22T01:51:02.908Z,7.60
2019-05-22T01:53:35.850Z,7.72
2019-05-22T01:56:08.289Z,7.83
2019-05-22T01:58:40.452Z,7.95
2019-05-22T02:01:12.211Z,8.13
2019-05-22T02:03:43.336Z,8.65
2019-05-22T02:06:13.398Z,9.33
2019-05-22T02:08:45.723Z,9.40
2019-05-22T02:11:16.388Z,8.63
2019-05-22T02:13:47.571Z,9.23
2019-05-22T02:16:18.013Z,9.63
2019-05-22T02:18:50.204Z,8.68
2019-05-22T02:21:23.023Z,9.98
2019-05-22T02:23:53.862Z,9.38
2019-05-22T02:26:24.844Z,9.35
2019-05-22T02:28:58.020Z,9.80
2019-05-22T02:31:30.667Z,9.83
2019-05-22T02:34:08.356Z,10.05
2019-05-22T02:36:39.908Z,10.20
2019-05-22T02:39:13.125Z,10.45
2019-05-22T02:41:47.461Z,10.03
2019-05-22T02:44:18.198Z,10.48
2019-05-22T02:46:48.910Z,10.23
2019-05-22T02:49:21.260Z,10.00
2019-05-22T02:51:53.734Z,10.80
2019-05-22T02:54:26.356Z,10.20
2019-05-22T02:56:57.897Z,10.28
2019-05-22T02:59:32.186Z,10.68
2019-05-22T03:02:04.261Z,11.20
2019-05-22T03:04:51.797Z,11.15
2019-05-22T03:07:22.756Z,10.70
2019-05-22T03:09:53.388Z,11.35
2019-05-22T03:12:27.699Z,12.10
2019-05-22T03:14:57.661Z,12.00
2019-05-22T03:17:29.471Z,11.88
2019-05-22T03:20:00.042Z,12.30
2019-05-22T03:22:39.384Z,12.55
2019-05-22T03:25:15.788Z,12.63
2019-05-22T03:27:47.537Z,13.00
2019-05-22T03:30:27.149Z,13.48
2019-05-22T03:32:58.852Z,13.03
2019-05-22T03:35:29.761Z,13.38
2019-05-22T03:38:03.083Z,13.25
2019-05-22T03:40:34.204Z,13.72
2019-05-22T03:43:21.715Z,13.50
2019-05-22T03:45:55.030Z,12.50
2019-05-22T03:48:25.284Z,13.10
2019-05-22T03:50:57.581Z,13.25
2019-05-22T03:53:34.953Z,12.65
2019-05-22T03:56:04.529Z,12.90
2019-05-22T03:58:35.389Z,12.03
2019-05-22T04:01:09.274Z,12.45
2019-05-22T04:03:39.959Z,12.43
2019-05-22T04:06:15.228Z,12.28
2019-05-22T04:08:46.264Z,12.10
2019-05-22T04:11:38.732Z,11.70
2019-05-22T04:14:09.239Z,11.85
2019-05-22T04:16:38.815Z,11.93
2019-05-22T04:19:08.373Z,11.53
2019-05-22T04:21:37.295Z,11.78
2019-05-22T04:24:16.235Z,11.73
2019-05-22T04:26:47.221Z,11.83
2019-05-22T04:29:16.152Z,11.38
2019-05-22T04:31:54.891Z,11.70
2019-05-22T04:34:26.575Z,12.05
2019-05-22T04:37:01.149Z,12.35
2019-05-22T04:39:33.073Z,12.13
2019-05-22T04:42:05.961Z,11.40
2019-05-22T04:44:38.285Z,11.67
2019-05-22T04:47:12.026Z,11.63
2019-05-22T04:49:43.097Z,11.95
2019-05-22T04:52:12.398Z,12.10
2019-05-22T04:54:45.762Z,11.97
2019-05-22T04:57:15.785Z,11.68
2019-05-22T04:59:48.319Z,12.28
2019-05-22T05:02:20.069Z,12.30
2019-05-22T05:04:51.279Z,12.78
2019-05-22T05:07:21.154Z,12.88
2019-05-22T05:09:50.435Z,12.73
2019-05-22T05:12:26.525Z,12.63
2019-05-22T05:14:56.376Z,12.18
2019-05-22T05:17:28.729Z,12.68
2019-05-22T05:19:59.041Z,12.43
2019-05-22T05:22:45.194Z,11.95
2019-05-22T05:25:18.374Z,12.10
2019-05-22T05:27:47.947Z,11.55
2019-05-22T05:30:38.880Z,11.83
2019-05-22T05:33:07.848Z,12.33
2019-05-22T05:35:45.538Z,11.88
2019-05-22T05:38:23.832Z,11.70
2019-05-22T05:40:53.856Z,12.13
2019-05-22T05:43:24.459Z,11.15
2019-05-22T05:49:01.624Z,11.90
2019-05-22T05:51:33.736Z,11.33
2019-05-22T05:57:29.907Z,12.25
2019-05-22T05:59:59.740Z,11.68
2019-05-22T06:02:29.379Z,11.83
2019-05-22T06:04:58.792Z,11.48
2019-05-22T06:07:28.344Z,10.60
2019-05-22T06:10:00.373Z,11.08
2019-05-22T06:12:31.436Z,11.20
2019-05-22T06:15:01.353Z,10.68
2019-05-22T06:17:50.515Z,11.55
2019-05-22T06:20:19.654Z,11.63
2019-05-22T06:22:50.180Z,11.63
2019-05-22T06:25:19.818Z,11.35
2019-05-22T06:27:51.490Z,11.00
2019-05-22T06:30:23.296Z,10.95
2019-05-22T06:33:13.580Z,11.37
2019-05-22T06:35:54.182Z,10.50
2019-05-22T06:38:41.448Z,10.80
2019-05-22T06:41:13.081Z,10.20
2019-05-22T06:43:46.480Z,10.13
2019-05-22T06:46:20.502Z,10.55
2019-05-22T06:48:51.509Z,10.27
2019-05-22T06:51:20.996Z,9.95
2019-05-22T06:53:53.690Z,9.50
2019-05-22T06:56:23.868Z,9.93
2019-05-22T06:58:56.699Z,9.53
2019-05-22T07:01:29.057Z,9.63
2019-05-22T07:03:58.614Z,9.63
2019-05-22T07:06:31.355Z,9.13
2019-05-22T07:08:58.952Z,8.88
2019-05-22T07:11:28.204Z,8.63
2019-05-22T07:13:57.743Z,8.23
2019-05-22T07:16:26.720Z,8.03
2019-05-22T07:19:01.901Z,8.05
2019-05-22T07:21:34.075Z,8.00
2019-05-22T07:24:02.897Z,7.93
2019-05-22T07:26:33.960Z,7.72
2019-05-22T07:29:05.829Z,7.12
2019-05-22T07:31:36.095Z,7.27
2019-05-22T07:34:05.377Z,7.00
2019-05-22T07:36:34.725Z,8.05
2019-05-22T07:39:07.303Z,7.30
2019-05-22T07:41:36.066Z,7.47
2019-05-22T07:44:06.657Z,7.47
2019-05-22T07:46:35.742Z,8.00
2019-05-22T07:49:07.087Z,8.10
2019-05-22T07:51:53.208Z,7.60
2019-05-22T07:54:12.739Z,7.42
2019-05-22T07:56:44.197Z,8.00
2019-05-22T07:59:13.778Z,7.67
2019-05-22T08:01:43.342Z,8.10
2019-05-22T08:04:15.909Z,8.33
2019-05-22T08:06:55.215Z,8.33
2019-05-22T08:09:24.269Z,8.00
2019-05-22T08:11:53.887Z,7.78
2019-05-22T08:14:24.551Z,8.13
2019-05-22T08:16:55.396Z,7.78
2019-05-22T08:19:35.498Z,8.13
2019-05-22T08:22:07.622Z,8.13
2019-05-22T08:24:37.704Z,7.58
2019-05-22T08:27:08.355Z,8.10
2019-05-22T08:29:37.491Z,8.30
2019-05-22T08:32:19.822Z,8.18
2019-05-22T08:34:49.827Z,8.65
2019-05-22T08:37:20.580Z,8.60
2019-05-22T08:40:10.327Z,8.73
2019-05-22T08:42:41.365Z,8.70
2019-05-22T08:45:11.783Z,9.03
2019-05-22T08:47:41.575Z,7.97
2019-05-22T08:50:10.882Z,8.08
2019-05-22T08:52:43.285Z,7.67
2019-05-22T08:55:16.149Z,8.10
2019-05-22T08:57:47.550Z,7.67
2019-05-22T09:00:22.509Z,7.47
2019-05-22T09:03:01.769Z,6.80
2019-05-22T09:05:32.694Z,7.40
2019-05-22T09:08:02.195Z,6.47
2019-05-22T09:10:33.044Z,7.40
2019-05-22T09:13:04.840Z,7.45
2019-05-22T09:15:36.631Z,7.20
2019-05-22T09:18:24.121Z,6.85
2019-05-22T09:20:56.134Z,6.70
2019-05-22T09:23:26.692Z,6.60
2019-05-22T09:29:00.076Z,6.15
2019-05-22T09:31:29.810Z,6.10
2019-05-22T09:36:54.062Z,6.75
2019-05-22T09:39:26.598Z,6.47
2019-05-22T09:42:07.678Z,6.83
2019-05-22T09:44:38.118Z,6.65
2019-05-22T09:47:08.571Z,6.15
2019-05-22T09:49:38.043Z,6.28
2019-05-22T09:52:09.846Z,6.87
2019-05-22T09:54:41.357Z,6.35
2019-05-22T09:57:24.033Z,6.25
2019-05-22T10:00:03.017Z,6.83
2019-05-22T10:02:33.167Z,6.65
2019-05-22T10:05:02.725Z,6.70
2019-05-22T10:07:37.514Z,6.47
2019-05-22T10:10:10.612Z,6.17
2019-05-22T10:12:51.337Z,6.37
2019-05-22T10:15:22.012Z,6.90
2019-05-22T10:17:52.226Z,6.72
2019-05-22T10:20:22.305Z,6.40
2019-05-22T10:22:52.125Z,6.55
2019-05-22T10:25:32.215Z,6.33
2019-05-22T10:28:01.209Z,6.22
2019-05-22T10:30:31.915Z,6.22
2019-05-22T10:33:01.441Z,6.58
2019-05-22T10:35:32.028Z,6.20
2019-05-22T10:38:04.485Z,6.55
2019-05-22T10:40:41.769Z,6.08
2019-05-22T10:43:13.673Z,6.50
2019-05-22T10:45:44.297Z,6.87
2019-05-22T10:48:13.240Z,7.30
2019-05-22T10:50:42.461Z,7.30
2019-05-22T10:53:41.831Z,7.37
2019-05-22T10:56:14.282Z,7.00
2019-05-22T10:58:44.478Z,7.20
2019-05-22T11:01:16.989Z,7.22
2019-05-22T11:03:57.750Z,7.67
2019-05-22T11:06:26.756Z,7.20
2019-05-22T11:08:55.482Z,6.55
2019-05-22T11:11:33.498Z,6.72
2019-05-22T11:14:21.509Z,6.50
2019-05-22T11:16:47.173Z,6.20
2019-05-22T11:19:20.571Z,7.03
2019-05-22T11:21:50.579Z,6.62
2019-05-22T11:24:21.025Z,6.58
2019-05-22T11:26:58.726Z,6.00
2019-05-22T11:29:28.295Z,5.70
2019-05-22T11:32:00.291Z,6.05
2019-05-22T11:34:29.295Z,5.80
2019-05-22T11:36:58.121Z,5.87
2019-05-22T11:39:38.498Z,5.65
2019-05-22T11:41:59.606Z,5.22
2019-05-22T11:44:41.086Z,4.90
2019-05-22T11:47:10.064Z,5.40
2019-05-22T11:49:39.851Z,5.62
2019-05-22T11:52:11.969Z,5.60
2019-05-22T11:54:49.384Z,5.20
2019-05-22T11:57:20.078Z,5.03
2019-05-22T11:59:55.032Z,5.20
2019-05-22T12:02:25.923Z,5.37
2019-05-22T12:04:55.196Z,5.37
2019-05-22T12:07:24.523Z,5.47
2019-05-22T12:09:54.721Z,5.35
2019-05-22T12:12:26.119Z,5.70
2019-05-22T12:14:55.495Z,6.03
2019-05-22T12:17:37.604Z,5.75
2019-05-22T12:19:55.249Z,6.05
2019-05-22T12:22:24.108Z,5.50
2019-05-22T12:24:57.164Z,5.53
2019-05-22T12:27:26.148Z,5.03
2019-05-22T12:29:56.841Z,5.58
2019-05-22T12:32:25.895Z,5.60
2019-05-22T12:34:55.653Z,5.17
2019-05-22T12:37:25.663Z,5.47
2019-05-22T12:39:56.260Z,5.67
2019-05-22T12:42:25.785Z,5.58
2019-05-22T12:44:54.843Z,5.35
2019-05-22T12:47:25.167Z,5.00
2019-05-22T12:49:55.643Z,5.53
2019-05-22T12:52:24.946Z,5.17
2019-05-22T12:54:54.381Z,5.43
2019-05-22T12:57:29.800Z,5.45
2019-05-22T13:00:02.268Z,5.22
2019-05-22T13:02:30.887Z,5.53
2019-05-22T13:05:04.843Z,4.70
2019-05-22T13:07:36.073Z,5.60
2019-05-22T13:10:09.889Z,6.00
2019-05-22T13:12:39.504Z,5.83
2019-05-22T13:15:10.874Z,5.92
2019-05-22T13:17:41.557Z,5.77
2019-05-22T13:20:12.862Z,5.35
2019-05-22T13:22:58.574Z,5.58
2019-05-22T13:25:34.158Z,5.90
2019-05-22T13:28:07.746Z,5.70
2019-05-22T13:30:40.166Z,5.97
2019-05-22T13:33:17.028Z,5.70
2019-05-22T13:35:45.776Z,5.50
2019-05-22T13:38:16.195Z,5.67
2019-05-22T13:40:48.410Z,5.23
2019-05-22T13:43:18.436Z,5.20
2019-05-22T13:45:47.629Z,5.40
2019-05-22T13:48:17.834Z,5.15
2019-05-22T13:50:51.009Z,5.20
2019-05-22T13:53:25.370Z,5.17
2019-05-22T13:55:56.496Z,5.70
2019-05-22T13:58:26.005Z,4.90
2019-05-22T14:00:56.863Z,4.80
2019-05-22T14:03:27.927Z,5.33
2019-05-22T14:06:06.172Z,4.65
2019-05-22T14:08:36.469Z,5.12
2019-05-22T14:11:07.242Z,5.17
2019-05-22T14:13:36.223Z,5.10
2019-05-22T14:16:08.119Z,4.60
2019-05-22T14:18:39.648Z,5.27
2019-05-22T14:21:14.335Z,4.65
2019-05-22T14:23:44.673Z,4.58
2019-05-22T14:26:14.413Z,4.67
2019-05-22T14:28:46.524Z,4.30
2019-05-22T14:31:39.059Z,4.20
2019-05-22T14:34:08.355Z,4.20
2019-05-22T14:36:43.429Z,4.55
2019-05-22T14:39:14.776Z,3.92
2019-05-22T14:41:44.715Z,4.17
2019-05-22T14:44:25.336Z,4.08
2019-05-22T14:47:12.214Z,4.10
2019-05-22T14:49:42.755Z,4.30
2019-05-22T14:52:12.340Z,3.70
2019-05-22T14:54:42.780Z,4.03
2019-05-22T14:57:12.974Z,3.37
2019-05-22T14:59:42.352Z,3.47
2019-05-22T15:02:11.956Z,3.50
2019-05-22T15:04:59.037Z,3.42
2019-05-22T15:07:46.535Z,3.37
2019-05-22T15:10:16.527Z,2.90
2019-05-22T15:12:43.062Z,3.30
2019-05-22T15:15:12.987Z,2.83
2019-05-22T15:17:41.830Z,2.65
2019-05-22T15:20:21.943Z,2.80
2019-05-22T15:23:08.371Z,2.70
2019-05-22T15:25:39.580Z,2.47
2019-05-22T15:28:12.027Z,2.70
2019-05-22T15:30:41.127Z,2.52
2019-05-22T15:33:10.194Z,2.50
2019-05-22T15:35:40.361Z,2.50
2019-05-22T15:38:35.437Z,2.87
2019-05-22T15:41:05.302Z,2.80
2019-05-22T15:43:39.472Z,2.92
2019-05-22T15:46:14.097Z,2.80
2019-05-22T15:48:46.492Z,2.58
2019-05-22T15:51:17.351Z,2.75
2019-05-22T15:53:48.466Z,2.60
2019-05-22T15:56:18.240Z,2.92
2019-05-22T15:58:49.308Z,2.52
2019-05-22T16:01:19.003Z,3.20
2019-05-22T16:03:52.114Z,3.60
2019-05-22T16:06:23.984Z,3.98
2019-05-22T16:08:53.751Z,4.17
2019-05-22T16:11:25.933Z,3.90
2019-05-22T16:13:57.972Z,4.40
2019-05-22T16:16:28.490Z,3.83
2019-05-22T16:18:59.622Z,4.10
2019-05-22T16:21:50.505Z,3.98
2019-05-22T16:24:19.376Z,4.20
2019-05-22T16:26:49.135Z,3.75
2019-05-22T16:29:18.586Z,3.92
2019-05-22T16:31:49.279Z,3.77
2019-05-22T16:34:19.056Z,3.80
2019-05-22T16:36:48.212Z,4.65
2019-05-22T16:39:18.850Z,4.22
2019-05-22T16:41:48.192Z,4.00
2019-05-22T16:44:18.317Z,4.62
2019-05-22T16:46:49.257Z,5.10
2019-05-22T16:49:20.027Z,5.33
2019-05-22T16:51:59.365Z,4.58
2019-05-22T16:54:33.240Z,4.40
2019-05-22T16:57:03.365Z,4.62
2019-05-22T16:59:37.046Z,4.67
2019-05-22T17:02:09.697Z,4.37
2019-05-22T17:04:56.898Z,4.37
2019-05-22T17:07:28.435Z,4.40
2019-05-22T17:10:01.079Z,4.62
2019-05-22T17:12:41.628Z,4.80
2019-05-22T17:15:23.088Z,4.65
2019-05-22T17:17:56.793Z,4.75
2019-05-22T17:20:28.191Z,4.50
2019-05-22T17:23:07.827Z,4.87
2019-05-22T17:25:40.212Z,4.30
2019-05-22T17:28:11.598Z,4.60
2019-05-22T17:30:41.799Z,4.62
2019-05-22T17:33:12.360Z,4.70
2019-05-22T17:35:42.962Z,4.70
2019-05-22T17:38:13.723Z,4.53
2019-05-22T17:40:44.254Z,4.70
2019-05-22T17:43:26.979Z,4.33
2019-05-22T17:45:59.243Z,4.60
2019-05-22T17:48:29.517Z,4.33
2019-05-22T17:51:06.708Z,4.70
2019-05-22T17:53:38.457Z,4.92
2019-05-22T17:56:10.717Z,4.53
2019-05-22T17:58:43.233Z,4.57
2019-05-22T18:01:14.628Z,4.40
2019-05-22T18:04:02.821Z,4.50
2019-05-22T18:06:35.654Z,4.50
2019-05-22T18:09:08.368Z,4.30
2019-05-22T18:11:41.717Z,4.03
2019-05-22T18:14:16.423Z,4.28
2019-05-22T18:16:48.108Z,4.20
2019-05-22T18:19:17.870Z,3.90
2019-05-22T18:21:57.699Z,3.87
2019-05-22T18:24:29.011Z,4.10
2019-05-22T18:26:59.318Z,3.90
2019-05-22T18:29:28.220Z,3.80
2019-05-22T18:31:58.538Z,4.10
2019-05-22T18:34:41.706Z,3.90
2019-05-22T18:37:15.929Z,3.80
2019-05-22T18:39:48.079Z,3.80
2019-05-22T18:42:18.783Z,3.52
2019-05-22T18:44:49.678Z,3.83
2019-05-22T18:47:28.912Z,3.60
2019-05-22T18:49:59.354Z,3.62
2019-05-22T18:52:40.364Z,3.52
2019-05-22T18:55:03.041Z,3.67
2019-05-22T18:57:34.530Z,3.52
2019-05-22T19:00:18.205Z,3.75
2019-05-22T19:02:46.283Z,3.70
2019-05-22T19:05:18.604Z,3.52
2019-05-22T19:07:51.051Z,3.50
2019-05-22T19:10:22.625Z,3.65
2019-05-22T19:12:55.054Z,3.90
2019-05-22T19:15:25.748Z,3.58
2019-05-22T19:18:01.798Z,3.72
2019-05-22T19:20:36.226Z,3.55
2019-05-22T19:23:12.605Z,3.80
2019-05-22T19:25:52.965Z,3.62
2019-05-22T19:28:22.964Z,4.00
2019-05-22T19:30:58.170Z,3.70
2019-05-22T19:33:35.788Z,3.75
2019-05-22T19:36:06.016Z,3.95
2019-05-22T19:38:35.704Z,4.00
2019-05-22T19:41:09.626Z,3.80
2019-05-22T19:43:40.823Z,4.05
2019-05-22T19:46:09.777Z,3.75
2019-05-22T19:48:43.251Z,4.10
2019-05-22T19:51:13.730Z,3.97
2019-05-22T19:53:47.581Z,3.80
2019-05-22T19:56:23.458Z,4.12
2019-05-22T19:58:53.297Z,4.22
2019-05-22T20:01:23.720Z,4.33
2019-05-22T20:03:55.049Z,4.30
2019-05-22T20:06:24.079Z,4.17
2019-05-22T20:08:54.019Z,4.30
2019-05-22T20:11:26.024Z,4.10
2019-05-22T20:13:57.023Z,4.15
2019-05-22T20:16:27.444Z,3.98
2019-05-22T20:18:59.927Z,4.58
2019-05-22T20:21:32.025Z,4.10
2019-05-22T20:24:03.990Z,4.42
2019-05-22T20:26:35.792Z,4.40
2019-05-22T20:29:07.004Z,4.40
2019-05-22T20:31:37.455Z,4.53
2019-05-22T20:34:07.834Z,4.40
2019-05-22T20:36:39.674Z,4.47
2019-05-22T20:39:10.134Z,4.50
2019-05-22T20:41:41.307Z,4.40
2019-05-22T20:44:11.874Z,4.37
2019-05-22T20:46:43.438Z,4.42
2019-05-22T20:49:12.954Z,4.42
2019-05-22T20:51:44.670Z,4.62
2019-05-22T20:54:17.398Z,4.53
2019-05-22T20:56:50.009Z,4.42
2019-05-22T20:59:23.242Z,4.50
2019-05-22T21:01:55.272Z,4.30
2019-05-22T21:04:26.903Z,4.03
2019-05-22T21:07:00.116Z,4.17
2019-05-22T21:09:30.374Z,4.75
2019-05-22T21:12:01.480Z,4.60
2019-05-22T21:14:36.530Z,4.65
2019-05-22T21:17:06.498Z,4.65
2019-05-22T21:19:37.622Z,4.58
2019-05-22T21:22:08.662Z,4.60
2019-05-22T21:24:39.422Z,4.80
2019-05-22T21:27:23.119Z,4.78
2019-05-22T21:29:53.717Z,4.42
2019-05-22T21:32:22.433Z,4.60
2019-05-22T21:34:53.638Z,4.33
2019-05-22T21:37:26.099Z,4.60
2019-05-22T21:39:55.959Z,4.87
2019-05-22T21:42:31.358Z,4.25
2019-05-22T21:45:02.979Z,4.62
2019-05-22T21:47:34.053Z,4.17
2019-05-22T21:50:04.987Z,4.40
2019-05-22T21:52:37.276Z,4.45
2019-05-22T21:55:08.309Z,4.15
2019-05-22T21:57:38.714Z,4.12
2019-05-22T22:00:25.741Z,4.30
2019-05-22T22:02:58.840Z,3.85
2019-05-22T22:05:32.507Z,4.30
2019-05-22T22:08:06.405Z,4.37
2019-05-22T22:10:36.809Z,4.20
2019-05-22T22:13:09.789Z,4.47
2019-05-22T22:15:47.798Z,4.03
2019-05-22T22:18:18.809Z,4.30
2019-05-22T22:20:56.898Z,4.30
2019-05-22T22:23:26.129Z,4.45
2019-05-22T22:25:58.597Z,4.83
2019-05-22T22:28:33.324Z,4.40
2019-05-22T22:31:05.668Z,4.30
2019-05-22T22:33:46.873Z,4.47
2019-05-22T22:36:21.148Z,4.67
2019-05-22T22:38:53.969Z,4.78
2019-05-22T22:41:28.299Z,4.70
2019-05-22T22:43:59.280Z,4.87
2019-05-22T22:46:50.665Z,4.62
2019-05-22T22:49:24.471Z,4.87
2019-05-22T22:51:56.577Z,4.90
2019-05-22T22:54:29.942Z,4.92
2019-05-22T22:57:00.324Z,4.53
2019-05-22T22:59:32.781Z,4.90
2019-05-22T23:02:05.656Z,4.80
2019-05-22T23:04:36.000Z,4.67
2019-05-22T23:07:05.905Z,4.92
2019-05-22T23:09:38.538Z,4.83
2019-05-22T23:12:10.092Z,5.00
2019-05-22T23:14:41.509Z,4.97
2019-05-22T23:17:13.192Z,4.70
2019-05-22T23:19:45.366Z,4.72
2019-05-22T23:22:16.402Z,4.42
2019-05-22T23:24:47.201Z,4.72
2019-05-22T23:27:18.701Z,4.50
2019-05-22T23:29:49.701Z,4.92
2019-05-22T23:32:24.897Z,5.12
2019-05-22T23:34:56.588Z,4.72
2019-05-22T23:37:28.415Z,4.85
2019-05-22T23:40:00.333Z,5.00
2019-05-22T23:42:31.998Z,4.50
2019-05-22T23:45:04.447Z,4.85
2019-05-22T23:47:33.812Z,4.22
2019-05-22T23:50:06.349Z,4.80
2019-05-22T23:52:37.337Z,4.73
2019-05-22T23:55:07.420Z,4.72
2019-05-22T23:57:38.910Z,4.72
